sensor_id;sensor_type;location;lat;lon;timestamp;temperature;humidity
21035;DHT22;10676;50.848;3.272;2024-01-10T00:00:16;-3.50;99.90
21035;DHT22;10676;50.848;3.272;2024-01-10T00:02:42;-3.60;99.90
21035;DHT22;10676;50.848;3.272;2024-01-10T00:05:09;-3.40;99.90
21035;DHT22;10676;50.848;3.272;2024-01-10T00:07:35;-3.50;99.90
21035;DHT22;10676;50.848;3.272;2024-01-10T00:10:02;-3.30;99.90
21035;DHT22;10676;50.848;3.272;2024-01-10T00:12:28;-3.50;99.90
21035;DHT22;10676;50.848;3.272;2024-01-10T00:14:59;-3.50;99.90
21035;DHT22;10676;50.848;3.272;2024-01-10T00:17:26;-3.40;99.90
21035;DHT22;10676;50.848;3.272;2024-01-10T00:19:51;-3.40;99.90
21035;DHT22;10676;50.848;3.272;2024-01-10T00:22:18;-3.50;99.90
21035;DHT22;10676;50.848;3.272;2024-01-10T00:24:44;-3.40;99.90
21035;DHT22;10676;50.848;3.272;2024-01-10T00:27:11;-3.40;99.90
21035;DHT22;10676;50.848;3.272;2024-01-10T00:29:40;-3.50;99.90
21035;DHT22;10676;50.848;3.272;2024-01-10T00:32:14;-3.80;99.90
21035;DHT22;10676;50.848;3.272;2024-01-10T00:34:40;-3.30;99.90
21035;DHT22;10676;50.848;3.272;2024-01-10T00:37:06;-3.60;99.90
21035;DHT22;10676;50.848;3.272;2024-01-10T00:39:35;-3.50;99.90
21035;DHT22;10676;50.848;3.272;2024-01-10T00:42:00;-3.40;99.90
21035;DHT22;10676;50.848;3.272;2024-01-10T00:44:27;-3.60;99.90
21035;DHT22;10676;50.848;3.272;2024-01-10T00:46:56;-3.60;99.90
21035;DHT22;10676;50.848;3.272;2024-01-10T00:49:23;-3.40;99.90
21035;DHT22;10676;50.848;3.272;2024-01-10T00:51:49;-3.50;99.90
21035;DHT22;10676;50.848;3.272;2024-01-10T00:54:14;-3.50;99.90
21035;DHT22;10676;50.848;3.272;2024-01-10T00:56:40;-3.60;99.90
21035;DHT22;10676;50.848;3.272;2024-01-10T00:59:06;-3.60;99.90
21035;DHT22;10676;50.848;3.272;2024-01-10T01:01:31;-3.70;99.90
21035;DHT22;10676;50.848;3.272;2024-01-10T01:03:58;-3.80;99.90
21035;DHT22;10676;50.848;3.272;2024-01-10T01:06:24;-4.00;99.90
21035;DHT22;10676;50.848;3.272;2024-01-10T01:08:50;-3.80;99.90
21035;DHT22;10676;50.848;3.272;2024-01-10T01:11:15;-3.80;99.90
21035;DHT22;10676;50.848;3.272;2024-01-10T01:13:41;-3.90;99.90
21035;DHT22;10676;50.848;3.272;2024-01-10T01:16:06;-3.90;99.90
21035;DHT22;10676;50.848;3.272;2024-01-10T01:18:32;-3.90;99.90
21035;DHT22;10676;50.848;3.272;2024-01-10T01:20:58;-4.10;99.90
21035;DHT22;10676;50.848;3.272;2024-01-10T01:23:23;-4.10;99.90
21035;DHT22;10676;50.848;3.272;2024-01-10T01:25:49;-4.10;99.90
21035;DHT22;10676;50.848;3.272;2024-01-10T01:28:16;-4.10;99.90
21035;DHT22;10676;50.848;3.272;2024-01-10T01:30:41;-4.10;99.90
21035;DHT22;10676;50.848;3.272;2024-01-10T01:33:07;-4.10;99.90
21035;DHT22;10676;50.848;3.272;2024-01-10T01:35:33;-4.10;99.90
21035;DHT22;10676;50.848;3.272;2024-01-10T01:37:58;-4.10;99.90
21035;DHT22;10676;50.848;3.272;2024-01-10T01:40:24;-4.10;99.90
21035;DHT22;10676;50.848;3.272;2024-01-10T01:42:49;-4.20;99.90
21035;DHT22;10676;50.848;3.272;2024-01-10T01:45:15;-4.20;99.90
21035;DHT22;10676;50.848;3.272;2024-01-10T01:47:41;-4.20;99.90
21035;DHT22;10676;50.848;3.272;2024-01-10T01:50:07;-4.20;99.90
21035;DHT22;10676;50.848;3.272;2024-01-10T01:52:33;-4.20;99.90
21035;DHT22;10676;50.848;3.272;2024-01-10T01:55:01;-4.20;99.90
21035;DHT22;10676;50.848;3.272;2024-01-10T01:57:26;-4.20;99.90
21035;DHT22;10676;50.848;3.272;2024-01-10T01:59:52;-4.20;99.90
21035;DHT22;10676;50.848;3.272;2024-01-10T02:02:18;-4.30;99.90
21035;DHT22;10676;50.848;3.272;2024-01-10T02:04:46;-4.30;99.90
21035;DHT22;10676;50.848;3.272;2024-01-10T02:07:12;-4.30;99.90
21035;DHT22;10676;50.848;3.272;2024-01-10T02:09:38;-4.30;99.90
21035;DHT22;10676;50.848;3.272;2024-01-10T02:12:04;-4.30;99.90
21035;DHT22;10676;50.848;3.272;2024-01-10T02:14:30;-4.40;99.90
21035;DHT22;10676;50.848;3.272;2024-01-10T02:16:55;-4.40;99.90
21035;DHT22;10676;50.848;3.272;2024-01-10T02:19:22;-4.40;99.90
21035;DHT22;10676;50.848;3.272;2024-01-10T02:21:48;-4.40;99.90
21035;DHT22;10676;50.848;3.272;2024-01-10T02:24:14;-4.40;99.90
21035;DHT22;10676;50.848;3.272;2024-01-10T02:26:40;-4.40;99.90
21035;DHT22;10676;50.848;3.272;2024-01-10T02:29:06;-4.50;99.90
21035;DHT22;10676;50.848;3.272;2024-01-10T02:31:31;-4.50;99.90
21035;DHT22;10676;50.848;3.272;2024-01-10T02:33:58;-4.50;99.90
21035;DHT22;10676;50.848;3.272;2024-01-10T02:36:28;-4.30;99.90
21035;DHT22;10676;50.848;3.272;2024-01-10T02:38:54;-4.50;99.90
21035;DHT22;10676;50.848;3.272;2024-01-10T02:41:24;-4.50;99.90
21035;DHT22;10676;50.848;3.272;2024-01-10T02:43:50;-4.50;99.90
21035;DHT22;10676;50.848;3.272;2024-01-10T02:46:19;-4.50;99.90
21035;DHT22;10676;50.848;3.272;2024-01-10T02:48:48;-4.50;99.90
21035;DHT22;10676;50.848;3.272;2024-01-10T02:51:14;-4.50;99.90
21035;DHT22;10676;50.848;3.272;2024-01-10T02:53:39;-4.60;99.90
21035;DHT22;10676;50.848;3.272;2024-01-10T02:56:06;-4.60;99.90
21035;DHT22;10676;50.848;3.272;2024-01-10T02:58:32;-4.60;99.90
21035;DHT22;10676;50.848;3.272;2024-01-10T03:00:57;-4.60;99.90
21035;DHT22;10676;50.848;3.272;2024-01-10T03:03:24;-4.70;99.90
21035;DHT22;10676;50.848;3.272;2024-01-10T03:05:49;-4.70;99.90
21035;DHT22;10676;50.848;3.272;2024-01-10T03:08:15;-4.70;99.90
21035;DHT22;10676;50.848;3.272;2024-01-10T03:10:40;-4.70;99.90
21035;DHT22;10676;50.848;3.272;2024-01-10T03:13:06;-4.70;99.90
21035;DHT22;10676;50.848;3.272;2024-01-10T03:15:32;-4.80;99.90
21035;DHT22;10676;50.848;3.272;2024-01-10T03:17:57;-4.80;99.90
21035;DHT22;10676;50.848;3.272;2024-01-10T03:20:23;-4.80;99.90
21035;DHT22;10676;50.848;3.272;2024-01-10T03:22:48;-4.90;99.90
21035;DHT22;10676;50.848;3.272;2024-01-10T03:25:14;-4.80;99.90
21035;DHT22;10676;50.848;3.272;2024-01-10T03:27:40;-4.80;99.90
21035;DHT22;10676;50.848;3.272;2024-01-10T03:30:06;-4.80;99.90
21035;DHT22;10676;50.848;3.272;2024-01-10T03:32:32;-4.80;99.90
21035;DHT22;10676;50.848;3.272;2024-01-10T03:34:57;-4.80;99.90
21035;DHT22;10676;50.848;3.272;2024-01-10T03:37:23;-4.90;99.90
21035;DHT22;10676;50.848;3.272;2024-01-10T03:39:49;-4.90;99.90
21035;DHT22;10676;50.848;3.272;2024-01-10T03:42:14;-4.90;99.90
21035;DHT22;10676;50.848;3.272;2024-01-10T03:44:41;-4.90;99.90
21035;DHT22;10676;50.848;3.272;2024-01-10T03:47:06;-4.90;99.90
21035;DHT22;10676;50.848;3.272;2024-01-10T03:49:32;-4.90;99.90
21035;DHT22;10676;50.848;3.272;2024-01-10T03:51:58;-4.90;99.90
21035;DHT22;10676;50.848;3.272;2024-01-10T03:54:23;-4.90;99.90
21035;DHT22;10676;50.848;3.272;2024-01-10T03:56:49;-4.90;99.90
21035;DHT22;10676;50.848;3.272;2024-01-10T03:59:14;-5.00;99.90
21035;DHT22;10676;50.848;3.272;2024-01-10T04:01:40;-4.90;99.90
21035;DHT22;10676;50.848;3.272;2024-01-10T04:04:06;-4.90;99.90
21035;DHT22;10676;50.848;3.272;2024-01-10T04:06:31;-4.90;99.90
21035;DHT22;10676;50.848;3.272;2024-01-10T04:08:57;-4.90;99.90
21035;DHT22;10676;50.848;3.272;2024-01-10T04:11:23;-4.90;99.90
21035;DHT22;10676;50.848;3.272;2024-01-10T04:13:48;-4.90;99.90
21035;DHT22;10676;50.848;3.272;2024-01-10T04:16:14;-5.00;99.90
21035;DHT22;10676;50.848;3.272;2024-01-10T04:18:39;-5.00;99.90
21035;DHT22;10676;50.848;3.272;2024-01-10T04:21:05;-5.00;99.90
21035;DHT22;10676;50.848;3.272;2024-01-10T04:23:31;-5.00;99.90
21035;DHT22;10676;50.848;3.272;2024-01-10T04:26:00;-5.00;99.90
21035;DHT22;10676;50.848;3.272;2024-01-10T04:28:25;-5.10;99.90
21035;DHT22;10676;50.848;3.272;2024-01-10T04:30:51;-5.10;99.90
21035;DHT22;10676;50.848;3.272;2024-01-10T04:33:17;-5.10;99.90
21035;DHT22;10676;50.848;3.272;2024-01-10T04:35:42;-5.00;99.90
21035;DHT22;10676;50.848;3.272;2024-01-10T04:38:08;-5.10;99.90
21035;DHT22;10676;50.848;3.272;2024-01-10T04:40:33;-5.10;99.90
21035;DHT22;10676;50.848;3.272;2024-01-10T04:42:59;-5.10;99.90
21035;DHT22;10676;50.848;3.272;2024-01-10T04:45:25;-5.10;99.90
21035;DHT22;10676;50.848;3.272;2024-01-10T04:47:50;-5.10;99.90
21035;DHT22;10676;50.848;3.272;2024-01-10T04:50:16;-5.10;99.90
21035;DHT22;10676;50.848;3.272;2024-01-10T04:52:42;-5.10;99.90
21035;DHT22;10676;50.848;3.272;2024-01-10T04:55:07;-5.10;99.90
21035;DHT22;10676;50.848;3.272;2024-01-10T04:57:33;-5.10;99.90
21035;DHT22;10676;50.848;3.272;2024-01-10T04:59:59;-5.10;99.90
21035;DHT22;10676;50.848;3.272;2024-01-10T05:02:24;-5.10;99.90
21035;DHT22;10676;50.848;3.272;2024-01-10T05:04:51;-5.20;99.90
21035;DHT22;10676;50.848;3.272;2024-01-10T05:07:16;-5.20;99.90
21035;DHT22;10676;50.848;3.272;2024-01-10T05:09:42;-5.20;99.90
21035;DHT22;10676;50.848;3.272;2024-01-10T05:12:08;-5.20;99.90
21035;DHT22;10676;50.848;3.272;2024-01-10T05:14:33;-5.20;99.90
21035;DHT22;10676;50.848;3.272;2024-01-10T05:16:59;-5.20;99.90
21035;DHT22;10676;50.848;3.272;2024-01-10T05:19:25;-5.20;99.90
21035;DHT22;10676;50.848;3.272;2024-01-10T05:21:50;-5.20;99.90
21035;DHT22;10676;50.848;3.272;2024-01-10T05:24:16;-5.10;99.90
21035;DHT22;10676;50.848;3.272;2024-01-10T05:26:44;-5.10;99.90
21035;DHT22;10676;50.848;3.272;2024-01-10T05:29:10;-5.10;99.90
21035;DHT22;10676;50.848;3.272;2024-01-10T05:31:36;-5.10;99.90
21035;DHT22;10676;50.848;3.272;2024-01-10T05:34:02;-5.10;99.90
21035;DHT22;10676;50.848;3.272;2024-01-10T05:36:27;-5.00;99.90
21035;DHT22;10676;50.848;3.272;2024-01-10T05:38:53;-4.90;99.90
21035;DHT22;10676;50.848;3.272;2024-01-10T05:41:19;-4.80;99.90
21035;DHT22;10676;50.848;3.272;2024-01-10T05:43:45;-4.90;99.90
21035;DHT22;10676;50.848;3.272;2024-01-10T05:46:11;-5.00;99.90
21035;DHT22;10676;50.848;3.272;2024-01-10T05:48:37;-4.90;99.90
21035;DHT22;10676;50.848;3.272;2024-01-10T05:51:03;-5.00;99.90
21035;DHT22;10676;50.848;3.272;2024-01-10T05:53:30;-5.20;99.90
21035;DHT22;10676;50.848;3.272;2024-01-10T05:55:55;-5.00;99.90
21035;DHT22;10676;50.848;3.272;2024-01-10T05:58:21;-5.10;99.90
21035;DHT22;10676;50.848;3.272;2024-01-10T06:00:47;-5.10;99.90
21035;DHT22;10676;50.848;3.272;2024-01-10T06:03:13;-5.20;99.90
21035;DHT22;10676;50.848;3.272;2024-01-10T06:05:40;-4.90;99.90
21035;DHT22;10676;50.848;3.272;2024-01-10T06:08:06;-5.10;99.90
21035;DHT22;10676;50.848;3.272;2024-01-10T06:10:32;-4.90;99.90
21035;DHT22;10676;50.848;3.272;2024-01-10T06:12:58;-5.10;99.90
21035;DHT22;10676;50.848;3.272;2024-01-10T06:15:24;-5.20;99.90
21035;DHT22;10676;50.848;3.272;2024-01-10T06:17:50;-5.10;99.90
21035;DHT22;10676;50.848;3.272;2024-01-10T06:20:19;-4.80;99.90
21035;DHT22;10676;50.848;3.272;2024-01-10T06:22:45;-4.90;99.90
21035;DHT22;10676;50.848;3.272;2024-01-10T06:25:14;-4.90;99.90
21035;DHT22;10676;50.848;3.272;2024-01-10T06:27:40;-4.90;99.90
21035;DHT22;10676;50.848;3.272;2024-01-10T06:30:07;-4.80;99.90
21035;DHT22;10676;50.848;3.272;2024-01-10T06:32:34;-4.80;99.90
21035;DHT22;10676;50.848;3.272;2024-01-10T06:35:02;-4.80;99.90
21035;DHT22;10676;50.848;3.272;2024-01-10T06:37:30;-4.60;99.90
21035;DHT22;10676;50.848;3.272;2024-01-10T06:39:56;-4.70;99.90
21035;DHT22;10676;50.848;3.272;2024-01-10T06:42:25;-4.90;99.90
21035;DHT22;10676;50.848;3.272;2024-01-10T06:44:51;-4.70;99.90
21035;DHT22;10676;50.848;3.272;2024-01-10T06:47:17;-4.70;99.90
21035;DHT22;10676;50.848;3.272;2024-01-10T06:49:43;-4.80;99.90
21035;DHT22;10676;50.848;3.272;2024-01-10T06:52:08;-4.70;99.90
21035;DHT22;10676;50.848;3.272;2024-01-10T06:54:34;-4.60;99.90
21035;DHT22;10676;50.848;3.272;2024-01-10T06:57:00;-4.80;99.90
21035;DHT22;10676;50.848;3.272;2024-01-10T06:59:26;-4.70;99.90
21035;DHT22;10676;50.848;3.272;2024-01-10T07:01:53;-4.70;99.90
21035;DHT22;10676;50.848;3.272;2024-01-10T07:04:19;-4.70;99.90
21035;DHT22;10676;50.848;3.272;2024-01-10T07:06:47;-4.90;99.90
21035;DHT22;10676;50.848;3.272;2024-01-10T07:09:13;-4.70;99.90
21035;DHT22;10676;50.848;3.272;2024-01-10T07:11:48;-4.80;99.90
21035;DHT22;10676;50.848;3.272;2024-01-10T07:14:14;-4.70;99.90
21035;DHT22;10676;50.848;3.272;2024-01-10T07:16:41;-4.80;99.90
21035;DHT22;10676;50.848;3.272;2024-01-10T07:19:09;-4.80;99.90
21035;DHT22;10676;50.848;3.272;2024-01-10T07:21:38;-4.80;99.90
21035;DHT22;10676;50.848;3.272;2024-01-10T07:24:04;-4.70;99.90
21035;DHT22;10676;50.848;3.272;2024-01-10T07:26:30;-4.70;99.90
21035;DHT22;10676;50.848;3.272;2024-01-10T07:28:55;-4.70;99.90
21035;DHT22;10676;50.848;3.272;2024-01-10T07:31:21;-4.70;99.90
21035;DHT22;10676;50.848;3.272;2024-01-10T07:33:46;-4.60;99.90
21035;DHT22;10676;50.848;3.272;2024-01-10T07:36:12;-4.60;99.90
21035;DHT22;10676;50.848;3.272;2024-01-10T07:38:38;-4.60;99.90
21035;DHT22;10676;50.848;3.272;2024-01-10T07:41:03;-4.60;99.90
21035;DHT22;10676;50.848;3.272;2024-01-10T07:43:29;-4.60;99.90
21035;DHT22;10676;50.848;3.272;2024-01-10T07:45:55;-4.60;99.90
21035;DHT22;10676;50.848;3.272;2024-01-10T07:48:20;-4.60;99.90
21035;DHT22;10676;50.848;3.272;2024-01-10T07:50:46;-4.60;99.90
21035;DHT22;10676;50.848;3.272;2024-01-10T07:53:12;-4.60;99.90
21035;DHT22;10676;50.848;3.272;2024-01-10T07:55:38;-4.60;99.90
21035;DHT22;10676;50.848;3.272;2024-01-10T07:58:04;-4.60;99.90
21035;DHT22;10676;50.848;3.272;2024-01-10T08:00:31;-4.60;99.90
21035;DHT22;10676;50.848;3.272;2024-01-10T08:02:56;-4.60;99.90
21035;DHT22;10676;50.848;3.272;2024-01-10T08:05:23;-4.50;99.90
21035;DHT22;10676;50.848;3.272;2024-01-10T08:07:49;-4.50;99.90
21035;DHT22;10676;50.848;3.272;2024-01-10T08:10:17;-4.50;99.90
21035;DHT22;10676;50.848;3.272;2024-01-10T08:12:43;-4.30;99.90
21035;DHT22;10676;50.848;3.272;2024-01-10T08:15:10;-4.50;99.90
21035;DHT22;10676;50.848;3.272;2024-01-10T08:17:35;-4.40;99.90
21035;DHT22;10676;50.848;3.272;2024-01-10T08:20:04;-4.40;99.90
21035;DHT22;10676;50.848;3.272;2024-01-10T08:22:30;-4.30;99.90
21035;DHT22;10676;50.848;3.272;2024-01-10T08:24:56;-4.20;99.90
21035;DHT22;10676;50.848;3.272;2024-01-10T08:27:22;-4.10;99.90
21035;DHT22;10676;50.848;3.272;2024-01-10T08:29:48;-4.10;99.90
21035;DHT22;10676;50.848;3.272;2024-01-10T08:32:32;-4.10;99.90
21035;DHT22;10676;50.848;3.272;2024-01-10T08:34:58;-4.10;99.90
21035;DHT22;10676;50.848;3.272;2024-01-10T08:37:24;-4.10;99.90
21035;DHT22;10676;50.848;3.272;2024-01-10T08:39:50;-4.00;99.90
21035;DHT22;10676;50.848;3.272;2024-01-10T08:42:15;-4.00;99.90
21035;DHT22;10676;50.848;3.272;2024-01-10T08:44:41;-4.00;99.90
21035;DHT22;10676;50.848;3.272;2024-01-10T08:47:09;-4.00;99.90
21035;DHT22;10676;50.848;3.272;2024-01-10T08:49:35;-3.90;99.90
21035;DHT22;10676;50.848;3.272;2024-01-10T08:52:04;-3.80;99.90
21035;DHT22;10676;50.848;3.272;2024-01-10T08:54:30;-3.70;99.90
21035;DHT22;10676;50.848;3.272;2024-01-10T08:56:59;-3.60;99.90
21035;DHT22;10676;50.848;3.272;2024-01-10T08:59:30;-3.60;99.90
21035;DHT22;10676;50.848;3.272;2024-01-10T09:01:56;-3.50;99.90
21035;DHT22;10676;50.848;3.272;2024-01-10T09:04:24;-3.30;99.90
21035;DHT22;10676;50.848;3.272;2024-01-10T09:06:52;-3.30;99.90
21035;DHT22;10676;50.848;3.272;2024-01-10T09:09:20;-3.30;99.90
21035;DHT22;10676;50.848;3.272;2024-01-10T09:11:53;-3.20;99.90
21035;DHT22;10676;50.848;3.272;2024-01-10T09:14:24;-3.10;99.90
21035;DHT22;10676;50.848;3.272;2024-01-10T09:16:50;-3.20;99.90
21035;DHT22;10676;50.848;3.272;2024-01-10T09:19:15;-3.00;99.90
21035;DHT22;10676;50.848;3.272;2024-01-10T09:21:41;-3.10;99.90
21035;DHT22;10676;50.848;3.272;2024-01-10T09:24:07;-3.00;99.90
21035;DHT22;10676;50.848;3.272;2024-01-10T09:26:36;-2.90;99.90
21035;DHT22;10676;50.848;3.272;2024-01-10T09:29:02;-2.80;99.90
21035;DHT22;10676;50.848;3.272;2024-01-10T09:31:43;-2.60;99.90
21035;DHT22;10676;50.848;3.272;2024-01-10T09:34:09;-2.10;99.90
21035;DHT22;10676;50.848;3.272;2024-01-10T09:36:35;-1.70;99.90
21035;DHT22;10676;50.848;3.272;2024-01-10T09:39:00;-1.70;99.90
21035;DHT22;10676;50.848;3.272;2024-01-10T09:41:37;-1.00;99.90
21035;DHT22;10676;50.848;3.272;2024-01-10T09:44:05;0.00;99.90
21035;DHT22;10676;50.848;3.272;2024-01-10T09:46:42;1.10;99.90
21035;DHT22;10676;50.848;3.272;2024-01-10T09:49:28;2.10;99.90
21035;DHT22;10676;50.848;3.272;2024-01-10T09:52:04;3.00;99.90
21035;DHT22;10676;50.848;3.272;2024-01-10T09:54:31;3.50;99.90
21035;DHT22;10676;50.848;3.272;2024-01-10T09:56:58;4.10;99.90
21035;DHT22;10676;50.848;3.272;2024-01-10T09:59:24;4.50;99.90
21035;DHT22;10676;50.848;3.272;2024-01-10T10:01:52;4.90;99.90
21035;DHT22;10676;50.848;3.272;2024-01-10T10:04:21;5.10;99.90
21035;DHT22;10676;50.848;3.272;2024-01-10T10:06:59;5.40;99.90
21035;DHT22;10676;50.848;3.272;2024-01-10T10:09:30;5.60;99.90
21035;DHT22;10676;50.848;3.272;2024-01-10T10:15:40;6.20;99.90
21035;DHT22;10676;50.848;3.272;2024-01-10T10:18:17;6.20;99.90
21035;DHT22;10676;50.848;3.272;2024-01-10T10:21:13;6.40;99.90
21035;DHT22;10676;50.848;3.272;2024-01-10T10:23:56;6.50;99.90
21035;DHT22;10676;50.848;3.272;2024-01-10T10:26:22;6.10;99.90
21035;DHT22;10676;50.848;3.272;2024-01-10T10:28:50;5.60;99.50
21035;DHT22;10676;50.848;3.272;2024-01-10T10:31:17;5.00;99.40
21035;DHT22;10676;50.848;3.272;2024-01-10T10:33:45;4.20;99.90
21035;DHT22;10676;50.848;3.272;2024-01-10T10:36:13;3.60;99.90
21035;DHT22;10676;50.848;3.272;2024-01-10T10:38:39;3.00;99.90
21035;DHT22;10676;50.848;3.272;2024-01-10T10:41:06;2.50;99.90
21035;DHT22;10676;50.848;3.272;2024-01-10T10:43:38;2.10;99.90
21035;DHT22;10676;50.848;3.272;2024-01-10T10:46:05;1.80;99.90
21035;DHT22;10676;50.848;3.272;2024-01-10T10:48:35;1.70;99.90
21035;DHT22;10676;50.848;3.272;2024-01-10T10:53:36;1.50;99.90
21035;DHT22;10676;50.848;3.272;2024-01-10T10:56:06;1.40;99.90
21035;DHT22;10676;50.848;3.272;2024-01-10T10:58:41;1.30;99.90
21035;DHT22;10676;50.848;3.272;2024-01-10T11:01:09;1.30;99.90
21035;DHT22;10676;50.848;3.272;2024-01-10T11:03:37;1.40;99.90
21035;DHT22;10676;50.848;3.272;2024-01-10T11:06:04;1.60;99.90
21035;DHT22;10676;50.848;3.272;2024-01-10T11:09:00;1.60;99.90
21035;DHT22;10676;50.848;3.272;2024-01-10T11:11:41;1.50;99.90
21035;DHT22;10676;50.848;3.272;2024-01-10T11:20:04;1.30;99.90
21035;DHT22;10676;50.848;3.272;2024-01-10T11:23:08;1.20;99.90
21035;DHT22;10676;50.848;3.272;2024-01-10T11:25:40;1.10;99.90
21035;DHT22;10676;50.848;3.272;2024-01-10T11:28:06;1.10;99.90
21035;DHT22;10676;50.848;3.272;2024-01-10T11:30:36;1.20;99.90
21035;DHT22;10676;50.848;3.272;2024-01-10T11:33:24;1.30;99.90
21035;DHT22;10676;50.848;3.272;2024-01-10T11:36:07;1.50;99.90
21035;DHT22;10676;50.848;3.272;2024-01-10T11:38:49;2.00;99.90
21035;DHT22;10676;50.848;3.272;2024-01-10T11:49:10;3.80;99.90
21035;DHT22;10676;50.848;3.272;2024-01-10T11:51:37;4.10;99.90
21035;DHT22;10676;50.848;3.272;2024-01-10T11:54:03;4.20;99.90
21035;DHT22;10676;50.848;3.272;2024-01-10T11:56:39;4.30;99.90
21035;DHT22;10676;50.848;3.272;2024-01-10T11:59:09;4.10;99.90
21035;DHT22;10676;50.848;3.272;2024-01-10T12:01:37;3.90;99.90
21035;DHT22;10676;50.848;3.272;2024-01-10T12:04:04;3.70;99.90
21035;DHT22;10676;50.848;3.272;2024-01-10T12:06:34;3.60;99.90
21035;DHT22;10676;50.848;3.272;2024-01-10T12:09:01;3.60;99.90
21035;DHT22;10676;50.848;3.272;2024-01-10T12:11:33;3.70;99.90
21035;DHT22;10676;50.848;3.272;2024-01-10T12:13:59;3.80;99.90
21035;DHT22;10676;50.848;3.272;2024-01-10T12:16:25;3.80;99.90
21035;DHT22;10676;50.848;3.272;2024-01-10T12:18:51;4.00;99.90
21035;DHT22;10676;50.848;3.272;2024-01-10T12:21:17;4.30;99.90
21035;DHT22;10676;50.848;3.272;2024-01-10T12:23:43;4.60;99.90
21035;DHT22;10676;50.848;3.272;2024-01-10T12:26:10;4.80;99.90
21035;DHT22;10676;50.848;3.272;2024-01-10T12:28:38;5.00;99.90
21035;DHT22;10676;50.848;3.272;2024-01-10T12:31:04;5.20;99.90
21035;DHT22;10676;50.848;3.272;2024-01-10T12:33:33;5.10;99.10
21035;DHT22;10676;50.848;3.272;2024-01-10T12:36:09;4.70;99.20
21035;DHT22;10676;50.848;3.272;2024-01-10T12:38:38;4.20;99.20
21035;DHT22;10676;50.848;3.272;2024-01-10T12:41:04;3.80;99.30
21035;DHT22;10676;50.848;3.272;2024-01-10T12:43:33;3.40;99.50
21035;DHT22;10676;50.848;3.272;2024-01-10T12:48:29;2.80;99.90
21035;DHT22;10676;50.848;3.272;2024-01-10T12:50:54;2.50;99.90
21035;DHT22;10676;50.848;3.272;2024-01-10T12:53:20;2.30;99.90
21035;DHT22;10676;50.848;3.272;2024-01-10T12:55:46;2.20;99.90
21035;DHT22;10676;50.848;3.272;2024-01-10T12:58:12;2.20;99.90
21035;DHT22;10676;50.848;3.272;2024-01-10T13:00:37;2.20;99.90
21035;DHT22;10676;50.848;3.272;2024-01-10T13:03:05;2.10;99.90
21035;DHT22;10676;50.848;3.272;2024-01-10T13:05:31;2.10;99.90
21035;DHT22;10676;50.848;3.272;2024-01-10T13:07:57;2.20;99.90
21035;DHT22;10676;50.848;3.272;2024-01-10T13:10:23;2.20;99.90
21035;DHT22;10676;50.848;3.272;2024-01-10T13:12:48;2.30;99.90
21035;DHT22;10676;50.848;3.272;2024-01-10T13:15:14;2.40;99.90
21035;DHT22;10676;50.848;3.272;2024-01-10T13:17:40;2.50;99.90
21035;DHT22;10676;50.848;3.272;2024-01-10T13:20:06;2.60;99.90
21035;DHT22;10676;50.848;3.272;2024-01-10T13:22:31;2.80;99.90
21035;DHT22;10676;50.848;3.272;2024-01-10T13:24:57;2.90;99.90
21035;DHT22;10676;50.848;3.272;2024-01-10T13:27:23;3.00;99.90
21035;DHT22;10676;50.848;3.272;2024-01-10T13:29:48;3.10;99.90
21035;DHT22;10676;50.848;3.272;2024-01-10T13:32:14;3.20;99.90
21035;DHT22;10676;50.848;3.272;2024-01-10T13:34:41;3.20;99.90
21035;DHT22;10676;50.848;3.272;2024-01-10T13:37:06;3.30;99.90
21035;DHT22;10676;50.848;3.272;2024-01-10T13:39:33;3.30;99.90
21035;DHT22;10676;50.848;3.272;2024-01-10T13:41:58;3.30;99.90
21035;DHT22;10676;50.848;3.272;2024-01-10T13:44:24;3.30;99.90
21035;DHT22;10676;50.848;3.272;2024-01-10T13:46:50;3.30;99.90
21035;DHT22;10676;50.848;3.272;2024-01-10T13:49:16;3.40;99.90
21035;DHT22;10676;50.848;3.272;2024-01-10T13:51:42;3.30;99.90
21035;DHT22;10676;50.848;3.272;2024-01-10T13:54:10;3.30;99.90
21035;DHT22;10676;50.848;3.272;2024-01-10T13:56:35;3.40;99.90
21035;DHT22;10676;50.848;3.272;2024-01-10T13:59:01;3.40;99.90
21035;DHT22;10676;50.848;3.272;2024-01-10T14:01:27;3.30;99.90
21035;DHT22;10676;50.848;3.272;2024-01-10T14:03:53;3.30;99.90
21035;DHT22;10676;50.848;3.272;2024-01-10T14:06:19;3.20;99.90
21035;DHT22;10676;50.848;3.272;2024-01-10T14:08:44;3.20;99.90
21035;DHT22;10676;50.848;3.272;2024-01-10T14:11:13;3.10;99.90
21035;DHT22;10676;50.848;3.272;2024-01-10T14:13:39;3.10;99.90
21035;DHT22;10676;50.848;3.272;2024-01-10T14:16:05;3.00;99.90
21035;DHT22;10676;50.848;3.272;2024-01-10T14:18:30;2.90;99.90
21035;DHT22;10676;50.848;3.272;2024-01-10T14:20:56;2.90;99.90
21035;DHT22;10676;50.848;3.272;2024-01-10T14:23:22;2.80;99.90
21035;DHT22;10676;50.848;3.272;2024-01-10T14:25:47;2.70;99.90
21035;DHT22;10676;50.848;3.272;2024-01-10T14:28:13;2.60;99.90
21035;DHT22;10676;50.848;3.272;2024-01-10T14:30:39;2.50;99.90
21035;DHT22;10676;50.848;3.272;2024-01-10T14:33:06;2.50;99.90
21035;DHT22;10676;50.848;3.272;2024-01-10T14:35:31;2.50;99.90
21035;DHT22;10676;50.848;3.272;2024-01-10T14:37:57;2.40;99.90
21035;DHT22;10676;50.848;3.272;2024-01-10T14:40:22;2.30;99.90
21035;DHT22;10676;50.848;3.272;2024-01-10T14:42:49;2.40;99.90
21035;DHT22;10676;50.848;3.272;2024-01-10T14:45:16;2.40;99.90
21035;DHT22;10676;50.848;3.272;2024-01-10T14:47:42;2.30;99.90
21035;DHT22;10676;50.848;3.272;2024-01-10T14:50:08;2.30;99.90
21035;DHT22;10676;50.848;3.272;2024-01-10T14:52:33;2.20;99.90
21035;DHT22;10676;50.848;3.272;2024-01-10T14:54:59;2.20;99.90
21035;DHT22;10676;50.848;3.272;2024-01-10T14:57:25;2.20;99.90
21035;DHT22;10676;50.848;3.272;2024-01-10T14:59:50;2.10;99.90
21035;DHT22;10676;50.848;3.272;2024-01-10T15:02:16;2.00;99.90
21035;DHT22;10676;50.848;3.272;2024-01-10T15:04:44;2.10;99.90
21035;DHT22;10676;50.848;3.272;2024-01-10T15:07:10;2.00;99.90
21035;DHT22;10676;50.848;3.272;2024-01-10T15:09:37;1.80;99.90
21035;DHT22;10676;50.848;3.272;2024-01-10T15:12:05;1.80;99.90
21035;DHT22;10676;50.848;3.272;2024-01-10T15:14:34;1.70;99.90
21035;DHT22;10676;50.848;3.272;2024-01-10T15:17:01;1.60;99.90
21035;DHT22;10676;50.848;3.272;2024-01-10T15:19:30;1.60;99.90
21035;DHT22;10676;50.848;3.272;2024-01-10T15:21:57;1.40;99.90
21035;DHT22;10676;50.848;3.272;2024-01-10T15:24:24;1.30;99.90
21035;DHT22;10676;50.848;3.272;2024-01-10T15:26:49;1.20;99.90
21035;DHT22;10676;50.848;3.272;2024-01-10T15:29:16;1.20;99.90
21035;DHT22;10676;50.848;3.272;2024-01-10T15:31:41;1.00;99.90
21035;DHT22;10676;50.848;3.272;2024-01-10T15:34:08;1.00;99.90
21035;DHT22;10676;50.848;3.272;2024-01-10T15:36:33;0.90;99.90
21035;DHT22;10676;50.848;3.272;2024-01-10T15:38:59;1.00;99.90
21035;DHT22;10676;50.848;3.272;2024-01-10T15:41:24;0.70;99.90
21035;DHT22;10676;50.848;3.272;2024-01-10T15:43:50;0.60;99.90
21035;DHT22;10676;50.848;3.272;2024-01-10T15:46:19;0.50;99.90
21035;DHT22;10676;50.848;3.272;2024-01-10T15:48:46;0.40;99.90
21035;DHT22;10676;50.848;3.272;2024-01-10T15:51:11;0.30;99.90
21035;DHT22;10676;50.848;3.272;2024-01-10T15:53:38;0.30;99.90
21035;DHT22;10676;50.848;3.272;2024-01-10T15:56:04;0.20;99.90
21035;DHT22;10676;50.848;3.272;2024-01-10T15:58:30;0.10;99.90